Americana — A8UZ5 — position and weather

sailwx.info

Track history (hours):
 
Tides and Currents Weather Stations Pressure Air Temp Water Temp Dewpoint Dewpoint Depression Visibility Wind Speed Wind Dir Waves Ship Positions

Americana

Last reported at 2014-Aug-25 01:24 UTC. Time now 2014-Sep-30 15:53 UTC.
Position N 30°44' E 032°20'.
Warning: this ship's position is 36 days out of date.

Length 229 m; draft 13.6 m.

Type: Ship. MMSI: 636014578.

Date/timePositionNaut miles runAvg speedWind from/ knotsBaromVisibWave heightAir tempDewpointWater temp
2014-Aug-25 01:24N 30°44' E 032°20'10 8.0
2014-Aug-25 00:07N 30°55' E 032°19'6 8.3
2014-Aug-24 23:21N 31°01' E 032°19'7 8.9
2014-Aug-24 22:33N 31°08' E 032°19'8 8.2
2014-Aug-24 21:33N 31°16' E 032°21'10 9.4
2014-Aug-24 20:31N 31°26' E 032°24'4 3.7
2014-Aug-24 19:33N 31°28' E 032°21'1 0.9
2014-Aug-24 18:33N 31°28' E 032°20'0 0.0
2014-Aug-24 17:21N 31°28' E 032°20'0 0.0
2014-Aug-24 16:27N 31°28' E 032°20'0 0.0
2014-Aug-24 15:33N 31°28' E 032°20'0 0.0
2014-Aug-24 14:33N 31°28' E 032°20'0 0.0
2014-Aug-24 13:30N 31°28' E 032°20'0 0.0
2014-Aug-24 12:33N 31°28' E 032°20'0 0.0
2014-Aug-24 11:33N 31°28' E 032°20'0 0.0
2014-Aug-24 10:33N 31°28' E 032°20'0 0.0
2014-Aug-24 09:33N 31°28' E 032°20'0 0.0
2014-Aug-24 08:33N 31°28' E 032°20'0 0.0
2014-Aug-24 06:33N 31°28' E 032°20'0 0.0
2014-Aug-24 05:33N 31°28' E 032°20'0 0.0
2014-Aug-24 04:33N 31°28' E 032°20'0 0.0
2014-Aug-24 03:33N 31°28' E 032°20'0 0.0
2014-Aug-24 02:24N 31°28' E 032°20'0 0.0
2014-Aug-24 01:09N 31°28' E 032°20'4 0.9
2014-Aug-23 21:16N 31°31' E 032°21'810.1
2014-Aug-23 20:31N 31°39' E 032°20'1111.6
2014-Aug-23 19:33N 31°50' E 032°21'18411.5
2014-Aug-23 03:31N 34°01' E 029°46'2311.5
2014-Aug-23 01:33N 34°16' E 029°26'20011.5
2014-Aug-22 08:07N 36°38' E 026°32'811.5
2014-Aug-22 07:25N 36°44' E 026°26'1011.8
2014-Aug-22 06:32N 36°52' E 026°17'1212.0
2014-Aug-22 05:33N 37°01' E 026°08'1211.8
2014-Aug-22 04:33N 37°12' E 026°01'1111.5
2014-Aug-22 03:34N 37°21' E 025°54'1111.3
2014-Aug-22 02:33N 37°32' E 025°47'1111.3
2014-Aug-22 01:32N 37°43' E 025°43'1111.2
2014-Aug-22 00:33N 37°54' E 025°43'1211.4
2014-Aug-21 23:33N 38°05' E 025°43'1111.2
2014-Aug-21 22:33N 38°16' E 025°43'1211.1
2014-Aug-21 21:26N 38°29' E 025°43'1011.1
2014-Aug-21 20:32N 38°38' E 025°43'8410.5
2014-Aug-21 12:33N 40°01' E 026°04'1210.9
2014-Aug-21 11:29N 40°05' E 026°18'2510.6
2014-Aug-21 09:05N 40°24' E 026°41'4 7.0
2014-Aug-21 08:31N 40°26' E 026°45'7 6.8
2014-Aug-21 07:31N 40°29' E 026°53'1410.8
2014-Aug-21 06:14N 40°35' E 027°09'3410.8
2014-Aug-21 03:07N 40°47' E 027°51'1110.8
2014-Aug-21 02:05N 40°49' E 028°05'2710.5
2014-Aug-20 23:31N 40°53' E 028°40'1010.3
2014-Aug-20 22:32N 40°55' E 028°53'32 7.7
2014-Aug-20 18:23N 41°24' E 029°12'1011.2
2014-Aug-20 17:32N 41°29' E 029°23'  
2014-Aug-17 12:15N 45°06' E 036°34'0 0.0
2014-Aug-17 08:33N 45°06' E 036°34'0 0.0
2014-Aug-16 18:33N 45°05' E 036°34'0 0.0
2014-Aug-16 17:33N 45°06' E 036°34'0 0.0
2014-Aug-16 16:33N 45°05' E 036°34'0 0.0
2014-Aug-16 15:33N 45°05' E 036°34'0 0.0
2014-Aug-16 14:33N 45°06' E 036°34'0 0.0
2014-Aug-16 13:33N 45°05' E 036°34'0 0.0
2014-Aug-16 12:24N 45°05' E 036°34'0 0.0
2014-Aug-16 11:27N 45°05' E 036°34'0 0.0
2014-Aug-16 10:33N 45°05' E 036°34'0 0.0
2014-Aug-16 09:27N 45°05' E 036°34'0 0.0
2014-Aug-16 06:18N 45°05' E 036°34'0 0.0
2014-Aug-16 05:33N 45°05' E 036°34'0 0.0
2014-Aug-15 21:33N 45°05' E 036°34'0 0.0
2014-Aug-15 20:12N 45°05' E 036°34'0 0.0
2014-Aug-15 19:21N 45°05' E 036°34'0 0.0
2014-Aug-15 18:30N 45°05' E 036°34'0 0.0
2014-Aug-15 17:30N 45°05' E 036°34'0 0.0
2014-Aug-15 16:30N 45°05' E 036°34'0 0.0
2014-Aug-15 15:21N 45°05' E 036°34'0 0.0
2014-Aug-15 14:33N 45°05' E 036°34'0 0.0
2014-Aug-15 13:30N 45°05' E 036°34'0 0.0
2014-Aug-15 12:33N 45°05' E 036°34'0 0.0
2014-Aug-15 11:33N 45°05' E 036°34'0 0.0
2014-Aug-15 10:33N 45°05' E 036°34'0 0.0
2014-Aug-15 09:33N 45°05' E 036°34'0 0.0
2014-Aug-15 08:33N 45°05' E 036°34'0 0.0
2014-Aug-15 07:33N 45°05' E 036°34'0 0.0
2014-Aug-15 06:33N 45°05' E 036°34'0 0.0
2014-Aug-15 05:33N 45°05' E 036°34'0 0.0
2014-Aug-15 04:30N 45°05' E 036°34'  
Track history (hours):
 
Tides and Currents Weather Stations Pressure Air Temp Water Temp Dewpoint Dewpoint Depression Visibility Wind Speed Wind Dir Waves Ship Positions

Americana

Last reported at 2014-Aug-25 01:24 UTC. Time now 2014-Sep-30 15:53 UTC.
Position N 30°44' E 032°20'.
Warning: this ship's position is 36 days out of date.

Length 229 m; draft 13.6 m.

Type: Ship. MMSI: 636014578.

Date/timePositionNaut miles runAvg speedWind from/ knotsBaromVisibWave heightAir tempDewpointWater temp
2014-Aug-25 01:24N 30°44' E 032°20'10 8.0
2014-Aug-25 00:07N 30°55' E 032°19'6 8.3
2014-Aug-24 23:21N 31°01' E 032°19'7 8.9
2014-Aug-24 22:33N 31°08' E 032°19'8 8.2
2014-Aug-24 21:33N 31°16' E 032°21'10 9.4
2014-Aug-24 20:31N 31°26' E 032°24'4 3.7
2014-Aug-24 19:33N 31°28' E 032°21'1 0.9
2014-Aug-24 18:33N 31°28' E 032°20'0 0.0
2014-Aug-24 17:21N 31°28' E 032°20'0 0.0
2014-Aug-24 16:27N 31°28' E 032°20'0 0.0
2014-Aug-24 15:33N 31°28' E 032°20'0 0.0
2014-Aug-24 14:33N 31°28' E 032°20'0 0.0
2014-Aug-24 13:30N 31°28' E 032°20'0 0.0
2014-Aug-24 12:33N 31°28' E 032°20'0 0.0
2014-Aug-24 11:33N 31°28' E 032°20'0 0.0
2014-Aug-24 10:33N 31°28' E 032°20'0 0.0
2014-Aug-24 09:33N 31°28' E 032°20'0 0.0
2014-Aug-24 08:33N 31°28' E 032°20'0 0.0
2014-Aug-24 06:33N 31°28' E 032°20'0 0.0
2014-Aug-24 05:33N 31°28' E 032°20'0 0.0
2014-Aug-24 04:33N 31°28' E 032°20'0 0.0
2014-Aug-24 03:33N 31°28' E 032°20'0 0.0
2014-Aug-24 02:24N 31°28' E 032°20'0 0.0
2014-Aug-24 01:09N 31°28' E 032°20'4 0.9
2014-Aug-23 21:16N 31°31' E 032°21'810.1
2014-Aug-23 20:31N 31°39' E 032°20'1111.6
2014-Aug-23 19:33N 31°50' E 032°21'18411.5
2014-Aug-23 03:31N 34°01' E 029°46'2311.5
2014-Aug-23 01:33N 34°16' E 029°26'20011.5
2014-Aug-22 08:07N 36°38' E 026°32'811.5
2014-Aug-22 07:25N 36°44' E 026°26'1011.8
2014-Aug-22 06:32N 36°52' E 026°17'1212.0
2014-Aug-22 05:33N 37°01' E 026°08'1211.8
2014-Aug-22 04:33N 37°12' E 026°01'1111.5
2014-Aug-22 03:34N 37°21' E 025°54'1111.3
2014-Aug-22 02:33N 37°32' E 025°47'1111.3
2014-Aug-22 01:32N 37°43' E 025°43'1111.2
2014-Aug-22 00:33N 37°54' E 025°43'1211.4
2014-Aug-21 23:33N 38°05' E 025°43'1111.2
2014-Aug-21 22:33N 38°16' E 025°43'1211.1
2014-Aug-21 21:26N 38°29' E 025°43'1011.1
2014-Aug-21 20:32N 38°38' E 025°43'8410.5
2014-Aug-21 12:33N 40°01' E 026°04'1210.9
2014-Aug-21 11:29N 40°05' E 026°18'2510.6
2014-Aug-21 09:05N 40°24' E 026°41'4 7.0
2014-Aug-21 08:31N 40°26' E 026°45'7 6.8
2014-Aug-21 07:31N 40°29' E 026°53'1410.8
2014-Aug-21 06:14N 40°35' E 027°09'3410.8
2014-Aug-21 03:07N 40°47' E 027°51'1110.8
2014-Aug-21 02:05N 40°49' E 028°05'2710.5
2014-Aug-20 23:31N 40°53' E 028°40'1010.3
2014-Aug-20 22:32N 40°55' E 028°53'32 7.7
2014-Aug-20 18:23N 41°24' E 029°12'1011.2
2014-Aug-20 17:32N 41°29' E 029°23'  
2014-Aug-17 12:15N 45°06' E 036°34'0 0.0
2014-Aug-17 08:33N 45°06' E 036°34'0 0.0
2014-Aug-16 18:33N 45°05' E 036°34'0 0.0
2014-Aug-16 17:33N 45°06' E 036°34'0 0.0
2014-Aug-16 16:33N 45°05' E 036°34'0 0.0
2014-Aug-16 15:33N 45°05' E 036°34'0 0.0
2014-Aug-16 14:33N 45°06' E 036°34'0 0.0
2014-Aug-16 13:33N 45°05' E 036°34'0 0.0
2014-Aug-16 12:24N 45°05' E 036°34'0 0.0
2014-Aug-16 11:27N 45°05' E 036°34'0 0.0
2014-Aug-16 10:33N 45°05' E 036°34'0 0.0
2014-Aug-16 09:27N 45°05' E 036°34'0 0.0
2014-Aug-16 06:18N 45°05' E 036°34'0 0.0
2014-Aug-16 05:33N 45°05' E 036°34'0 0.0
2014-Aug-15 21:33N 45°05' E 036°34'0 0.0
2014-Aug-15 20:12N 45°05' E 036°34'0 0.0
2014-Aug-15 19:21N 45°05' E 036°34'0 0.0
2014-Aug-15 18:30N 45°05' E 036°34'0 0.0
2014-Aug-15 17:30N 45°05' E 036°34'0 0.0
2014-Aug-15 16:30N 45°05' E 036°34'0 0.0
2014-Aug-15 15:21N 45°05' E 036°34'0 0.0
2014-Aug-15 14:33N 45°05' E 036°34'0 0.0
2014-Aug-15 13:30N 45°05' E 036°34'0 0.0
2014-Aug-15 12:33N 45°05' E 036°34'0 0.0
2014-Aug-15 11:33N 45°05' E 036°34'0 0.0
2014-Aug-15 10:33N 45°05' E 036°34'0 0.0
2014-Aug-15 09:33N 45°05' E 036°34'0 0.0
2014-Aug-15 08:33N 45°05' E 036°34'0 0.0
2014-Aug-15 07:33N 45°05' E 036°34'0 0.0
2014-Aug-15 06:33N 45°05' E 036°34'0 0.0
2014-Aug-15 05:33N 45°05' E 036°34'0 0.0
2014-Aug-15 04:30N 45°05' E 036°34'  

Dump ship's entire track history